Time;durP1;ratioP1;P1;durP2;ratioP2;P2;SDS_P1;SDS_P2;PMS_P1;PMS_P2;Temp;Humidity;BMP_temperature;BMP_pressure;BME280_temperature;BME280_humidity;BME280_pressure;Samples;Min_cycle;Max_cycle;Signal;HPM_P1;HPM_P2
2021/03/19 00:01:06;;;;;;;25.90;13.40;;;;;;;;;;5051961;28;20567;-82
2021/03/19 00:03:32;;;;;;;27.33;13.43;;;;;;;;;;5051521;28;20037;-82
2021/03/19 00:05:58;;;;;;;25.97;12.13;;;;;;;;;;5051124;28;20025;-83
2021/03/19 00:08:24;;;;;;;33.63;14.33;;;;;;;;;;5055252;28;20151;-82
2021/03/19 00:10:50;;;;;;;30.70;13.63;;;;;;;;;;5052713;28;20040;-82
2021/03/19 00:13:16;;;;;;;26.83;12.17;;;;;;;;;;5062881;28;20086;-82
2021/03/19 00:15:42;;;;;;;30.27;13.23;;;;;;;;;;5058009;28;20111;-83
2021/03/19 00:18:09;;;;;;;31.90;15.63;;;;;;;;;;5048565;28;20426;-80
2021/03/19 00:20:36;;;;;;;33.20;14.73;;;;;;;;;;5052413;28;20082;-82
2021/03/19 00:23:02;;;;;;;30.97;14.73;;;;;;;;;;5051469;28;20037;-82
2021/03/19 00:25:29;;;;;;;28.53;13.77;;;;;;;;;;5051710;28;20033;-83
2021/03/19 00:27:55;;;;;;;31.93;15.57;;;;;;;;;;5048111;28;20029;-82
2021/03/19 00:30:22;;;;;;;33.47;15.27;;;;;;;;;;5047698;28;20025;-81
2021/03/19 00:32:48;;;;;;;28.63;12.47;;;;;;;;;;5043832;28;20096;-82
2021/03/19 00:35:14;;;;;;;31.30;15.20;;;;;;;;;;5032934;28;20057;-80
2021/03/19 00:37:40;;;;;;;29.47;13.00;;;;;;;;;;5045234;28;20052;-82
2021/03/19 00:40:08;;;;;;;28.90;13.60;;;;;;;;;;5077800;28;20090;-81
2021/03/19 00:42:34;;;;;;;27.43;13.80;;;;;;;;;;5065059;28;20116;-81
2021/03/19 00:45:02;;;;;;;33.27;15.17;;;;;;;;;;5053126;28;20029;-81
2021/03/19 00:47:29;;;;;;;30.75;13.65;;;;;;;;;;5041243;28;20088;-82
2021/03/19 00:49:54;;;;;;;33.10;15.40;;;;;;;;;;5056251;28;20028;-82
2021/03/19 00:52:20;;;;;;;36.47;16.43;;;;;;;;;;5055789;28;20025;-82
2021/03/19 00:54:46;;;;;;;35.97;14.43;;;;;;;;;;5055806;28;20159;-81
2021/03/19 00:57:12;;;;;;;34.93;16.10;;;;;;;;;;5055212;28;20102;-82
2021/03/19 00:59:38;;;;;;;31.97;13.87;;;;;;;;;;5056248;28;20439;-82
2021/03/19 01:02:06;;;;;;;32.93;15.80;;;;;;;;;;5055763;28;20029;-83
2021/03/19 01:04:33;;;;;;;37.47;17.00;;;;;;;;;;5055823;28;20036;-81
2021/03/19 01:06:59;;;;;;;32.03;14.43;;;;;;;;;;5054487;28;20037;-82
2021/03/19 01:09:25;;;;;;;32.77;16.10;;;;;;;;;;5057285;28;20025;-82
2021/03/19 01:11:51;;;;;;;37.40;17.50;;;;;;;;;;5052073;28;20124;-81
2021/03/19 01:14:17;;;;;;;32.80;14.60;;;;;;;;;;5050478;28;20032;-81
2021/03/19 01:16:43;;;;;;;32.63;14.90;;;;;;;;;;5055345;28;20044;-81
2021/03/19 01:19:10;;;;;;;26.53;12.03;;;;;;;;;;5054144;28;20040;-82
2021/03/19 01:21:36;;;;;;;30.53;13.30;;;;;;;;;;5050274;28;20030;-82
2021/03/19 01:24:02;;;;;;;36.53;15.67;;;;;;;;;;5073644;28;20032;-82
2021/03/19 01:26:28;;;;;;;33.77;15.87;;;;;;;;;;5065728;28;20086;-81
2021/03/19 01:28:54;;;;;;;30.40;15.37;;;;;;;;;;5058287;28;20484;-82
2021/03/19 01:31:20;;;;;;;36.47;15.50;;;;;;;;;;5043139;28;20043;-82
2021/03/19 01:33:46;;;;;;;34.57;16.30;;;;;;;;;;5072189;28;20102;-83
2021/03/19 01:36:12;;;;;;;34.47;16.97;;;;;;;;;;5075700;28;20072;-82
2021/03/19 01:38:39;;;;;;;40.57;17.57;;;;;;;;;;5057481;28;20109;-83
2021/03/19 01:41:07;;;;;;;36.00;17.20;;;;;;;;;;5056560;28;20029;-83
2021/03/19 01:43:45;;;;;;;32.23;15.87;;;;;;;;;;5061555;28;20017;-79
2021/03/19 01:46:34;;;;;;;31.47;13.93;;;;;;;;;;5071779;28;20036;-83
2021/03/19 01:49:18;;;;;;;36.47;17.13;;;;;;;;;;5053808;28;20033;-83
2021/03/19 01:52:03;;;;;;;32.37;14.13;;;;;;;;;;5058855;28;20033;-82
2021/03/19 01:54:47;;;;;;;35.53;16.57;;;;;;;;;;5059722;28;20055;-82
2021/03/19 01:57:32;;;;;;;32.53;16.03;;;;;;;;;;5061974;28;20128;-82
2021/03/19 02:00:17;;;;;;;32.03;15.67;;;;;;;;;;5064089;28;20097;-82
2021/03/19 02:03:01;;;;;;;34.20;15.47;;;;;;;;;;5053957;28;20025;-82
2021/03/19 02:05:46;;;;;;;38.77;16.70;;;;;;;;;;5056323;28;20091;-82
2021/03/19 02:08:30;;;;;;;35.83;16.50;;;;;;;;;;5072647;28;20020;-82
2021/03/19 02:11:15;;;;;;;32.47;14.43;;;;;;;;;;5036788;28;20036;-82
2021/03/19 02:13:59;;;;;;;34.97;14.10;;;;;;;;;;5054704;28;20108;-83
2021/03/19 02:16:44;;;;;;;33.83;14.50;;;;;;;;;;5052680;28;20124;-83
2021/03/19 02:19:28;;;;;;;30.43;14.33;;;;;;;;;;5055417;28;20128;-82
2021/03/19 02:22:13;;;;;;;32.23;13.70;;;;;;;;;;5055106;28;20133;-81
2021/03/19 02:24:58;;;;;;;29.33;13.87;;;;;;;;;;5057001;28;20059;-83
2021/03/19 02:27:42;;;;;;;27.33;14.07;;;;;;;;;;5052268;28;20021;-81
2021/03/19 02:30:27;;;;;;;30.40;14.67;;;;;;;;;;5056819;28;20045;-81
2021/03/19 02:32:53;;;;;;;34.67;15.90;;;;;;;;;;5054523;28;20048;-82
2021/03/19 02:35:20;;;;;;;28.87;14.20;;;;;;;;;;5054093;28;20048;-81
2021/03/19 02:37:46;;;;;;;30.43;13.93;;;;;;;;;;5057406;28;20099;-83
2021/03/19 02:40:16;;;;;;;29.33;15.33;;;;;;;;;;5046718;28;20469;-83
2021/03/19 02:42:42;;;;;;;32.75;15.43;;;;;;;;;;5050327;28;20025;-81
2021/03/19 02:45:10;;;;;;;28.83;13.30;;;;;;;;;;5048892;28;20025;-82
2021/03/19 02:47:36;;;;;;;30.70;14.33;;;;;;;;;;5046771;28;20021;-81
2021/03/19 02:50:03;;;;;;;28.93;14.47;;;;;;;;;;5075473;28;20024;-80
2021/03/19 02:52:33;;;;;;;32.03;15.60;;;;;;;;;;5075648;28;20112;-82
2021/03/19 02:54:58;;;;;;;;;;;;;;;;;;5071709;28;20009;-81
2021/03/19 02:57:24;;;;;;;31.40;13.90;;;;;;;;;;5075100;28;19920;-81
2021/03/19 02:59:52;;;;;;;30.23;14.07;;;;;;;;;;5052256;28;20110;-81
2021/03/19 03:02:18;;;;;;;28.33;14.60;;;;;;;;;;5053513;28;20037;-81
2021/03/19 03:04:44;;;;;;;30.63;14.63;;;;;;;;;;5052394;28;20056;-82
2021/03/19 03:07:19;;;;;;;31.77;13.97;;;;;;;;;;5052619;28;20411;-80
2021/03/19 03:09:45;;;;;;;27.17;13.37;;;;;;;;;;5056481;28;20024;-82
2021/03/19 03:12:11;;;;;;;28.13;13.67;;;;;;;;;;5044820;28;20482;-81
2021/03/19 03:14:37;;;;;;;30.63;15.10;;;;;;;;;;5052020;28;20025;-80
2021/03/19 03:17:04;;;;;;;30.73;14.40;;;;;;;;;;5049293;28;20115;-81
2021/03/19 03:19:30;;;;;;;28.93;13.93;;;;;;;;;;5049598;28;20028;-81
2021/03/19 03:21:57;;;;;;;29.63;14.00;;;;;;;;;;5049649;28;20443;-82
2021/03/19 03:24:23;;;;;;;24.70;12.77;;;;;;;;;;5039195;28;20067;-81
2021/03/19 03:26:49;;;;;;;27.37;12.60;;;;;;;;;;5045537;28;20104;-82
2021/03/19 03:29:15;;;;;;;28.43;12.93;;;;;;;;;;5043064;28;20064;-82
2021/03/19 03:31:42;;;;;;;29.27;14.27;;;;;;;;;;5052680;28;20083;-82
2021/03/19 03:34:09;;;;;;;30.43;13.40;;;;;;;;;;5066979;28;20044;-80
2021/03/19 03:36:35;;;;;;;29.23;14.03;;;;;;;;;;5035200;28;20392;-80
2021/03/19 03:39:03;;;;;;;27.40;12.90;;;;;;;;;;5038782;28;20026;-82
2021/03/19 03:41:29;;;;;;;23.97;13.03;;;;;;;;;;5036665;28;20435;-82
2021/03/19 03:43:55;;;;;;;27.73;14.77;;;;;;;;;;5051854;28;20489;-82
2021/03/19 03:46:23;;;;;;;30.00;12.70;;;;;;;;;;5053781;28;20378;-81
2021/03/19 03:48:49;;;;;;;26.23;13.23;;;;;;;;;;5052456;28;20384;-82
2021/03/19 03:51:15;;;;;;;27.03;13.27;;;;;;;;;;5044587;28;20029;-83
2021/03/19 03:53:41;;;;;;;24.10;12.57;;;;;;;;;;5055714;28;20025;-82
2021/03/19 03:56:09;;;;;;;28.47;13.87;;;;;;;;;;5060441;28;20045;-83
2021/03/19 03:58:36;;;;;;;26.60;13.63;;;;;;;;;;5035177;28;20048;-81
2021/03/19 04:01:02;;;;;;;30.83;14.20;;;;;;;;;;5049496;28;20017;-81
2021/03/19 04:03:28;;;;;;;27.37;13.40;;;;;;;;;;5051423;28;20029;-81
2021/03/19 04:05:54;;;;;;;30.77;14.33;;;;;;;;;;5055762;28;20048;-83
2021/03/19 04:08:22;;;;;;;28.67;13.37;;;;;;;;;;5052284;28;20036;-81
2021/03/19 04:10:49;;;;;;;28.27;13.07;;;;;;;;;;5042199;28;20128;-83
2021/03/19 04:13:15;;;;;;;26.47;12.57;;;;;;;;;;5051298;28;20048;-81
2021/03/19 04:15:41;;;;;;;25.90;11.90;;;;;;;;;;5046564;28;20025;-82
2021/03/19 04:18:09;;;;;;;29.47;13.00;;;;;;;;;;5055796;28;20131;-81
2021/03/19 04:20:35;;;;;;;25.83;12.13;;;;;;;;;;5040990;28;20029;-82
2021/03/19 04:23:01;;;;;;;23.03;11.90;;;;;;;;;;5057538;28;20110;-83
2021/03/19 04:25:27;;;;;;;24.97;12.87;;;;;;;;;;5055011;28;20100;-80
2021/03/19 04:27:59;;;;;;;24.33;12.10;;;;;;;;;;5059840;28;20068;-81
2021/03/19 04:30:27;;;;;;;22.67;11.13;;;;;;;;;;5052303;28;20138;-81
2021/03/19 04:32:53;;;;;;;26.17;12.33;;;;;;;;;;5055328;28;20484;-84
2021/03/19 04:35:20;;;;;;;23.00;10.87;;;;;;;;;;5056835;28;20140;-82
2021/03/19 04:37:47;;;;;;;26.33;12.13;;;;;;;;;;5053740;28;20044;-82
2021/03/19 04:40:13;;;;;;;27.30;11.60;;;;;;;;;;5067488;28;20069;-82
2021/03/19 04:42:39;;;;;;;25.53;11.70;;;;;;;;;;5055423;28;20028;-82
2021/03/19 04:45:06;;;;;;;26.23;11.87;;;;;;;;;;5048042;28;20034;-82
2021/03/19 04:47:32;;;;;;;27.07;11.80;;;;;;;;;;5047033;28;20025;-81
2021/03/19 04:49:58;;;;;;;25.90;11.80;;;;;;;;;;5057156;28;20448;-83
2021/03/19 04:52:24;;;;;;;26.43;12.63;;;;;;;;;;5056270;28;20032;-82
2021/03/19 04:54:50;;;;;;;27.33;11.90;;;;;;;;;;5056621;28;20029;-83
2021/03/19 04:57:16;;;;;;;26.53;11.93;;;;;;;;;;5059270;28;20089;-81
2021/03/19 04:59:42;;;;;;;26.10;12.07;;;;;;;;;;5076822;28;20021;-81
2021/03/19 05:02:08;;;;;;;26.57;12.27;;;;;;;;;;5059326;28;20538;-81
2021/03/19 05:04:34;;;;;;;25.27;11.00;;;;;;;;;;5057678;28;20044;-82
2021/03/19 05:07:02;;;;;;;26.63;13.00;;;;;;;;;;5040444;28;20099;-82
2021/03/19 05:09:29;;;;;;;24.77;11.87;;;;;;;;;;5045556;28;20033;-80
2021/03/19 05:11:56;;;;;;;26.17;12.57;;;;;;;;;;5054381;28;20053;-82
2021/03/19 05:14:22;;;;;;;26.00;11.93;;;;;;;;;;5041994;28;20062;-82
2021/03/19 05:16:48;;;;;;;23.87;11.53;;;;;;;;;;5054479;28;20033;-82
2021/03/19 05:19:15;;;;;;;25.17;11.50;;;;;;;;;;5057802;28;20029;-81
2021/03/19 05:21:41;;;;;;;23.80;11.93;;;;;;;;;;5055914;28;20040;-84
2021/03/19 05:24:07;;;;;;;24.23;12.20;;;;;;;;;;5049474;28;20029;-82
2021/03/19 05:26:35;;;;;;;26.47;11.53;;;;;;;;;;5044471;28;20032;-82
2021/03/19 05:29:00;;;;;;;23.20;12.90;;;;;;;;;;5053737;28;20167;-82
2021/03/19 05:31:26;;;;;;;23.60;11.77;;;;;;;;;;5054025;28;20213;-83
2021/03/19 05:33:54;;;;;;;27.43;12.00;;;;;;;;;;5054280;28;20049;-82
2021/03/19 05:36:25;;;;;;;20.23;10.00;;;;;;;;;;5055070;28;20072;-81
2021/03/19 05:38:51;;;;;;;24.20;10.97;;;;;;;;;;5049598;28;20039;-79
2021/03/19 05:41:18;;;;;;;22.50;10.87;;;;;;;;;;5054767;28;20111;-77
2021/03/19 05:43:46;;;;;;;23.67;11.83;;;;;;;;;;5053204;28;20090;-77
2021/03/19 05:46:16;;;;;;;24.53;11.27;;;;;;;;;;5052890;28;20074;-77
2021/03/19 05:48:49;;;;;;;26.33;11.87;;;;;;;;;;5050229;28;20334;-76
2021/03/19 05:51:34;;;;;;;24.53;11.63;;;;;;;;;;5051954;28;20029;-77
2021/03/19 05:54:09;;;;;;;24.97;11.40;;;;;;;;;;5053258;28;20028;-77
2021/03/19 05:56:36;;;;;;;23.53;11.83;;;;;;;;;;5058146;28;20029;-78
2021/03/19 05:59:02;;;;;;;25.93;12.00;;;;;;;;;;5065968;28;20383;-76
2021/03/19 06:01:28;;;;;;;23.97;11.40;;;;;;;;;;5061507;28;20059;-77
2021/03/19 06:03:57;;;;;;;24.30;11.57;;;;;;;;;;5055532;28;20105;-78
2021/03/19 06:06:23;;;;;;;22.63;11.07;;;;;;;;;;5050081;28;20108;-77
2021/03/19 06:08:49;;;;;;;21.70;11.13;;;;;;;;;;5053724;28;20503;-82
2021/03/19 06:11:26;;;;;;;27.53;12.17;;;;;;;;;;5056197;28;20126;-82
2021/03/19 06:14:03;;;;;;;25.63;11.50;;;;;;;;;;5053382;28;20033;-81
2021/03/19 06:16:34;;;;;;;24.83;10.83;;;;;;;;;;5051956;28;20037;-82
2021/03/19 06:19:02;;;;;;;22.37;10.77;;;;;;;;;;5054334;28;20043;-81
2021/03/19 06:21:31;;;;;;;25.00;10.53;;;;;;;;;;5047418;28;20348;-82
2021/03/19 06:24:26;;;;;;;26.00;11.40;;;;;;;;;;5038881;28;20388;-82
2021/03/19 06:26:53;;;;;;;21.17;11.70;;;;;;;;;;4996325;28;20068;-79
2021/03/19 06:29:19;;;;;;;24.57;11.73;;;;;;;;;;5009378;28;20634;-80
2021/03/19 06:32:05;;;;;;;22.57;10.60;;;;;;;;;;4996948;28;20069;-79
2021/03/19 06:34:32;;;;;;;22.50;10.63;;;;;;;;;;4979751;28;20046;-78
2021/03/19 06:37:02;;;;;;;21.53;11.00;;;;;;;;;;4991350;28;20146;-80
2021/03/19 06:39:33;;;;;;;19.97;10.13;;;;;;;;;;4988050;28;20030;-81
2021/03/19 06:42:01;;;;;;;20.33;10.43;;;;;;;;;;4991244;28;20543;-80
2021/03/19 06:44:27;;;;;;;20.87;10.10;;;;;;;;;;5000633;28;20095;-79
2021/03/19 06:46:58;;;;;;;25.43;11.73;;;;;;;;;;4998908;28;20108;-80
2021/03/19 06:49:24;;;;;;;19.90;9.97;;;;;;;;;;4966826;28;20038;-80
2021/03/19 06:51:52;;;;;;;21.43;11.23;;;;;;;;;;4975749;28;20394;-80
2021/03/19 06:54:21;;;;;;;25.23;9.50;;;;;;;;;;4991665;28;20037;-80
2021/03/19 06:57:05;;;;;;;20.63;10.60;;;;;;;;;;4975558;28;20053;-81
2021/03/19 06:59:40;;;;;;;26.63;11.43;;;;;;;;;;4994163;28;20026;-80
2021/03/19 07:02:21;;;;;;;24.13;11.33;;;;;;;;;;4996010;28;20030;-80
2021/03/19 07:05:02;;;;;;;22.77;11.13;;;;;;;;;;5055279;28;20037;-80
2021/03/19 07:07:28;;;;;;;22.73;10.63;;;;;;;;;;5053213;28;20025;-79
2021/03/19 07:10:13;;;;;;;22.33;10.07;;;;;;;;;;5073025;28;20028;-80
2021/03/19 07:12:42;;;;;;;21.87;10.67;;;;;;;;;;5059855;28;20515;-81
2021/03/19 07:15:27;;;;;;;26.50;11.53;;;;;;;;;;5053378;28;20388;-80
2021/03/19 07:17:53;;;;;;;21.30;10.13;;;;;;;;;;5057424;28;20044;-79
2021/03/19 07:20:27;;;;;;;26.40;11.37;;;;;;;;;;5069308;28;20099;-80
2021/03/19 07:22:59;;;;;;;22.10;10.60;;;;;;;;;;5086803;28;20072;-80
2021/03/19 07:25:25;;;;;;;20.77;11.67;;;;;;;;;;5084670;28;20024;-80
2021/03/19 07:27:58;;;;;;;23.43;10.97;;;;;;;;;;5068393;28;20025;-80
2021/03/19 07:30:28;;;;;;;23.77;11.75;;;;;;;;;;5070799;28;20032;-80
2021/03/19 07:33:19;;;;;;;20.48;9.98;;;;;;;;;;5054352;28;21425;-81
2021/03/19 07:36:18;;;;;;;21.00;9.97;;;;;;;;;;5050409;28;20526;-79
2021/03/19 07:39:02;;;;;;;21.03;10.93;;;;;;;;;;5008929;28;20069;-80
2021/03/19 07:41:37;;;;;;;17.70;9.67;;;;;;;;;;4991004;28;20038;-80
2021/03/19 07:44:21;;;;;;;21.47;11.10;;;;;;;;;;5011272;28;20057;-79
2021/03/19 07:46:50;;;;;;;21.93;11.13;;;;;;;;;;5006097;28;20505;-80
2021/03/19 07:49:19;;;;;;;22.67;10.83;;;;;;;;;;5011048;28;20034;-81
2021/03/19 07:52:17;;;;;;;19.30;9.57;;;;;;;;;;5008909;28;20037;-82
2021/03/19 07:54:52;;;;;;;19.77;10.33;;;;;;;;;;4952321;29;20035;-81
2021/03/19 07:57:31;;;;;;;18.63;9.90;;;;;;;;;;4952055;28;20550;-81
2021/03/19 08:00:00;;;;;;;18.73;10.32;;;;;;;;;;4951665;28;20035;-78
2021/03/19 08:02:43;;;;;;;24.47;12.27;;;;;;;;;;4956456;28;20049;-79
2021/03/19 08:05:28;;;;;;;22.10;10.23;;;;;;;;;;4940033;29;20047;-80
2021/03/19 08:08:13;;;;;;;22.17;11.43;;;;;;;;;;4952615;28;20075;-80
2021/03/19 08:10:49;;;;;;;23.37;12.23;;;;;;;;;;4938626;29;20562;-79
2021/03/19 08:13:21;;;;;;;22.80;12.10;;;;;;;;;;4964741;28;20054;-79
2021/03/19 08:15:51;;;;;;;20.73;11.33;;;;;;;;;;4976272;28;20035;-79
2021/03/19 08:18:20;;;;;;;23.90;12.07;;;;;;;;;;4960587;28;20380;-79
2021/03/19 08:20:49;;;;;;;20.63;11.52;;;;;;;;;;4969100;28;20122;-79
2021/03/19 08:23:21;;;;;;;20.88;10.98;;;;;;;;;;4956470;28;20027;-79
2021/03/19 08:25:49;;;;;;;24.70;11.80;;;;;;;;;;4972345;28;20470;-79
2021/03/19 08:28:34;;;;;;;19.33;10.18;;;;;;;;;;4972921;28;20092;-78
2021/03/19 08:31:19;;;;;;;22.77;11.50;;;;;;;;;;5034333;28;20041;-80
2021/03/19 08:33:50;;;;;;;22.20;11.95;;;;;;;;;;5051444;28;20032;-78
2021/03/19 08:36:35;;;;;;;20.25;11.10;;;;;;;;;;5034643;28;20048;-81
2021/03/19 08:39:21;;;;;;;21.10;11.73;;;;;;;;;;5035530;28;20033;-79
2021/03/19 08:41:49;;;;;;;23.50;11.65;;;;;;;;;;5053479;28;20385;-78
2021/03/19 08:44:17;;;;;;;23.20;11.57;;;;;;;;;;5043121;28;20021;-79
2021/03/19 08:46:57;;;;;;;22.85;11.85;;;;;;;;;;5066423;28;20035;-79
2021/03/19 08:49:23;;;;;;;21.00;10.65;;;;;;;;;;5050372;28;20036;-79
2021/03/19 08:51:50;;;;;;;24.53;12.63;;;;;;;;;;5053560;28;20068;-79
2021/03/19 08:54:18;;;;;;;24.95;12.32;;;;;;;;;;5053638;28;20033;-79
2021/03/19 08:56:48;;;;;;;22.48;12.00;;;;;;;;;;5050278;28;20033;-79
2021/03/19 08:59:32;;;;;;;22.83;12.17;;;;;;;;;;5053801;28;20022;-79
2021/03/19 09:01:59;;;;;;;22.47;11.43;;;;;;;;;;5055597;28;20025;-79
2021/03/19 09:04:44;;;;;;;21.75;11.80;;;;;;;;;;5048037;28;20053;-79
2021/03/19 09:07:28;;;;;;;24.90;12.70;;;;;;;;;;5060680;28;20033;-80
2021/03/19 09:10:05;;;;;;;29.85;14.80;;;;;;;;;;5060802;28;20029;-81
2021/03/19 09:12:32;;;;;;;22.58;10.77;;;;;;;;;;5061382;28;20484;-83
2021/03/19 09:15:25;;;;;;;28.23;14.45;;;;;;;;;;5065182;28;20101;-83
2021/03/19 09:18:02;;;;;;;22.92;12.48;;;;;;;;;;5055306;28;20048;-82
2021/03/19 09:20:39;;;;;;;27.33;13.63;;;;;;;;;;5071182;28;20020;-85
2021/03/19 09:23:09;;;;;;;24.55;12.52;;;;;;;;;;5065991;28;20029;-82
2021/03/19 09:25:55;;;;;;;24.38;12.75;;;;;;;;;;5060975;28;20036;-82
2021/03/19 09:28:33;;;;;;;27.67;12.93;;;;;;;;;;5061500;28;20037;-82
2021/03/19 09:31:02;;;;;;;24.15;12.50;;;;;;;;;;5063074;28;20065;-85
2021/03/19 09:33:45;;;;;;;23.88;12.80;;;;;;;;;;5037812;28;20452;-86
2021/03/19 09:36:48;;;;;;;25.00;12.40;;;2.00;99.90;;;;;;5047969;28;20037;-84
2021/03/19 09:39:54;;;;;;;18.83;8.03;;;1.80;99.90;;;;;;5034980;28;20029;-88
2021/03/19 09:42:20;;;;;;;17.30;8.33;;;1.20;99.90;;;;;;5035933;28;20484;-85
2021/03/19 09:44:51;;;;;;;16.77;7.80;;;0.90;99.90;;;;;;5039767;28;20026;-87
2021/03/19 09:47:21;;;;;;;17.37;8.53;;;0.90;99.90;;;;;;5042402;28;20029;-81
2021/03/19 09:49:48;;;;;;;18.47;9.93;;;0.90;99.90;;;;;;5025737;28;20025;-89
2021/03/19 09:52:21;;;;;;;16.37;9.57;;;1.10;99.90;;;;;;5021879;28;20029;-82
2021/03/19 09:54:48;;;;;;;20.58;10.85;;;1.40;99.90;;;;;;5027000;28;20260;-85
2021/03/19 09:57:27;;;;;;;20.00;10.40;;;1.40;99.90;;;;;;5023520;28;20124;-80
2021/03/19 09:59:59;;;;;;;21.57;10.70;;;1.70;99.90;;;;;;5020980;28;20037;-85
2021/03/19 10:02:33;;;;;;;23.10;10.77;;;1.80;99.90;;;;;;5009580;28;20057;-88
2021/03/19 10:05:09;;;;;;;20.35;10.88;;;2.10;99.90;;;;;;5029675;28;20049;-87
2021/03/19 10:07:36;;;;;;;17.92;10.13;;;2.00;99.90;;;;;;5049966;28;20091;-87
2021/03/19 10:10:02;;;;;;;18.37;9.33;;;1.60;99.90;;;;;;5055260;28;20057;-86
2021/03/19 10:12:27;;;;;;;19.93;9.77;;;1.60;99.90;;;;;;5050700;28;20151;-85
2021/03/19 10:15:08;;;;;;;20.00;10.90;;;1.40;99.90;;;;;;5048007;28;20044;-81
2021/03/19 10:17:36;;;;;;;17.90;9.53;;;1.50;99.90;;;;;;5047980;28;20037;-84
2021/03/19 10:20:28;;;;;;;19.60;10.33;;;1.70;99.90;;;;;;5054548;28;20021;-81
2021/03/19 10:23:08;;;;;;;14.97;8.10;;;1.70;99.90;;;;;;5046008;28;20128;-82
2021/03/19 10:25:37;;;;;;;17.23;9.40;;;1.50;99.90;;;;;;5039215;28;20029;-80
2021/03/19 10:28:18;;;;;;;15.60;8.13;;;1.60;99.90;;;;;;5044466;28;20037;-80
2021/03/19 10:31:09;;;;;;;19.83;10.77;;;1.40;99.90;;;;;;5043266;28;20067;-79
2021/03/19 10:33:58;;;;;;;22.02;10.95;;;1.70;99.90;;;;;;5041500;28;20037;-80
2021/03/19 10:36:43;;;;;;;19.80;10.65;;;1.60;99.90;;;;;;5045954;28;20128;-81
2021/03/19 10:39:29;;;;;;;22.17;12.43;;;1.70;99.90;;;;;;5045658;28;20036;-81
2021/03/19 10:42:17;;;;;;;20.88;11.48;;;1.80;99.90;;;;;;5052318;28;20057;-83
2021/03/19 10:44:57;;;;;;;17.67;9.45;;;2.10;99.90;;;;;;5038910;28;20033;-79
2021/03/19 10:47:22;;;;;;;14.80;7.70;;;2.00;99.90;;;;;;5043922;28;20017;-80
2021/03/19 10:50:04;;;;;;;19.40;10.52;;;1.90;99.90;;;;;;5040295;28;20084;-79
2021/03/19 10:52:40;;;;;;;18.80;10.70;;;1.90;99.90;;;;;;5044853;28;20033;-81
2021/03/19 10:55:12;;;;;;;19.90;11.27;;;2.10;99.90;;;;;;5045288;28;20056;-81
2021/03/19 10:57:40;;;;;;;20.67;11.88;;;2.30;99.90;;;;;;5050130;28;20116;-82
2021/03/19 11:00:43;;;;;;;17.45;10.05;;;2.50;99.90;;;;;;5035620;28;20060;-82
2021/03/19 11:03:36;;;;;;;14.07;8.57;;;2.50;99.90;;;;;;5045418;28;20037;-81
2021/03/19 11:06:08;;;;;;;16.77;8.97;;;2.00;99.90;;;;;;5040477;28;20037;-82
2021/03/19 11:08:35;;;;;;;17.98;9.57;;;2.00;99.90;;;;;;5040211;28;20510;-83
2021/03/19 11:11:01;;;;;;;20.55;11.05;;;2.00;99.90;;;;;;5045989;28;20033;-82
2021/03/19 11:13:35;;;;;;;20.60;11.15;;;1.90;99.90;;;;;;5047933;28;20074;-83
2021/03/19 11:16:26;;;;;;;18.83;10.32;;;1.90;99.90;;;;;;5041059;28;20130;-82
2021/03/19 11:19:10;;;;;;;18.88;10.73;;;2.10;99.90;;;;;;5042226;28;20853;-83
2021/03/19 11:21:38;;;;;;;19.77;10.52;;;2.20;99.90;;;;;;5037321;28;20032;-83
2021/03/19 11:24:23;;;;;;;18.75;10.07;;;2.10;99.90;;;;;;5050143;28;20078;-82
2021/03/19 11:27:00;;;;;;;19.33;9.80;;;2.10;99.90;;;;;;5053750;28;20040;-82
2021/03/19 11:29:36;;;;;;;21.15;11.93;;;2.10;99.90;;;;;;5061293;28;20052;-83
2021/03/19 11:32:01;;;;;;;19.23;10.55;;;2.40;99.90;;;;;;5039587;28;20025;-82
2021/03/19 11:34:29;;;;;;;16.17;9.95;;;2.50;99.90;;;;;;5045474;28;20103;-83
2021/03/19 11:36:59;;;;;;;18.58;10.27;;;2.70;99.90;;;;;;5045195;28;20047;-81
2021/03/19 11:39:33;;;;;;;17.73;10.83;;;2.30;99.90;;;;;;5044270;28;20029;-83
2021/03/19 11:41:59;;;;;;;21.55;11.43;;;2.30;99.90;;;;;;5040397;28;20048;-85
2021/03/19 11:44:24;;;;;;;15.75;8.90;;;2.60;99.90;;;;;;5047689;28;20144;-84
2021/03/19 11:46:50;;;;;;;17.88;10.70;;;2.60;99.90;;;;;;5050666;28;20096;-83
2021/03/19 11:49:16;;;;;;;21.13;11.82;;;2.50;99.90;;;;;;5040924;28;20044;-84
2021/03/19 11:51:41;;;;;;;18.10;10.68;;;2.70;99.90;;;;;;5040455;28;20052;-85
2021/03/19 11:54:09;;;;;;;20.50;11.82;;;2.80;99.90;;;;;;5037216;28;20613;-84
2021/03/19 11:56:36;;;;;;;19.23;11.68;;;2.80;99.90;;;;;;5049295;28;20033;-78
2021/03/19 11:59:02;;;;;;;19.10;10.52;;;2.80;99.90;;;;;;5040264;28;20411;-84
2021/03/19 12:01:30;;;;;;;18.20;10.27;;;2.50;99.90;;;;;;5051907;28;20017;-82
2021/03/19 12:03:57;;;;;;;20.23;11.23;;;2.50;99.90;;;;;;5043229;28;20076;-82
2021/03/19 12:06:32;;;;;;;19.42;10.70;;;2.60;99.90;;;;;;5044416;28;20376;-83
2021/03/19 12:08:57;;;;;;;19.92;10.50;;;2.80;99.90;;;;;;5038292;28;20514;-82
2021/03/19 12:11:36;;;;;;;24.33;13.15;;;3.10;99.90;;;;;;5032605;28;20104;-82
2021/03/19 12:14:05;;;;;;;17.42;9.80;;;3.60;99.90;;;;;;5060735;28;20498;-82
2021/03/19 12:16:31;;;;;;;13.93;8.50;;;4.00;99.90;;;;;;5051164;28;20113;-82
2021/03/19 12:18:57;;;;;;;16.05;9.57;;;4.10;99.90;;;;;;5057523;28;20056;-82
2021/03/19 12:21:23;;;;;;;15.95;10.00;;;3.80;99.90;;;;;;5066983;28;20095;-83
2021/03/19 12:23:49;;;;;;;15.75;9.45;;;4.20;99.90;;;;;;5058257;28;20510;-81
2021/03/19 12:26:15;;;;;;;14.65;9.07;;;4.30;99.90;;;;;;5040795;28;20071;-84
2021/03/19 12:28:40;;;;;;;14.65;8.82;;;4.20;99.90;;;;;;5047372;28;20037;-82
2021/03/19 12:31:07;;;;;;;16.63;8.90;;;4.30;99.90;;;;;;5042396;28;20298;-81
2021/03/19 12:33:35;;;;;;;15.82;9.05;;;4.30;99.90;;;;;;5053678;28;20029;-83
2021/03/19 12:36:02;;;;;;;13.02;8.70;;;4.10;99.90;;;;;;5038497;28;20083;-82
2021/03/19 12:38:28;;;;;;;14.88;8.75;;;4.20;99.90;;;;;;5042627;28;20064;-81
2021/03/19 12:40:55;;;;;;;14.80;9.38;;;4.30;99.90;;;;;;5045242;28;20025;-82
2021/03/19 12:43:21;;;;;;;17.23;10.95;;;4.10;99.90;;;;;;5043855;28;20214;-82
2021/03/19 12:45:47;;;;;;;15.95;10.27;;;4.20;99.90;;;;;;5047217;28;20045;-82
2021/03/19 12:48:13;;;;;;;16.23;9.73;;;4.20;99.90;;;;;;5049077;28;20049;-83
2021/03/19 12:50:39;;;;;;;16.67;11.23;;;4.50;99.90;;;;;;5049218;28;20039;-83
2021/03/19 12:53:06;;;;;;;20.27;9.80;;;4.60;99.90;;;;;;5053257;28;20025;-83
2021/03/19 12:55:34;;;;;;;17.08;10.15;;;4.30;99.90;;;;;;5039226;28;20443;-81
2021/03/19 12:58:00;;;;;;;16.98;10.73;;;4.20;99.90;;;;;;5051549;28;20429;-82
2021/03/19 13:00:30;;;;;;;16.25;9.68;;;4.50;99.90;;;;;;5048419;28;20017;-82
2021/03/19 13:02:56;;;;;;;12.18;7.85;;;4.90;99.90;;;;;;5030134;28;20507;-81
2021/03/19 13:05:24;;;;;;;13.00;7.40;;;4.90;99.90;;;;;;5053013;28;20021;-83
2021/03/19 13:07:49;;;;;;;13.93;8.27;;;5.40;99.90;;;;;;5049176;28;20025;-82
2021/03/19 13:10:17;;;;;;;12.60;7.90;;;5.10;99.90;;;;;;5045264;28;20032;-83
2021/03/19 13:12:43;;;;;;;11.90;7.07;;;5.30;99.90;;;;;;5040970;28;20026;-82
2021/03/19 13:15:11;;;;;;;15.05;8.25;;;5.40;99.90;;;;;;5045189;28;20025;-82
2021/03/19 13:17:37;;;;;;;15.35;9.25;;;5.30;99.90;;;;;;5043933;28;20095;-83
2021/03/19 13:20:08;;;;;;;13.35;8.18;;;5.30;99.90;;;;;;5043876;28;20475;-82
2021/03/19 13:22:35;;;;;;;11.43;7.28;;;4.70;99.90;;;;;;5038324;28;20041;-81
2021/03/19 13:25:00;;;;;;;11.25;6.47;;;4.60;99.90;;;;;;5037710;28;20035;-83
2021/03/19 13:27:28;;;;;;;11.73;6.68;;;4.40;99.90;;;;;;5041904;28;20384;-82
2021/03/19 13:29:53;;;;;;;13.57;7.20;;;4.50;99.90;;;;;;5044517;28;20029;-83
2021/03/19 13:32:19;;;;;;;9.77;6.43;;;4.40;99.90;;;;;;5042824;28;20116;-83
2021/03/19 13:34:45;;;;;;;11.23;6.32;;;4.50;99.90;;;;;;5037317;28;20056;-82
2021/03/19 13:37:10;;;;;;;14.18;8.30;;;4.80;99.90;;;;;;5054681;28;20071;-82
2021/03/19 13:39:36;;;;;;;14.13;8.77;;;4.90;99.90;;;;;;5058418;28;20029;-82
2021/03/19 13:42:07;;;;;;;14.07;8.38;;;5.30;99.90;;;;;;5049880;28;20021;-82
2021/03/19 13:44:36;;;;;;;13.00;8.15;;;5.50;99.90;;;;;;5050538;28;20113;-83
2021/03/19 13:47:03;;;;;;;12.15;7.30;;;5.60;99.90;;;;;;5038619;28;20033;-82
2021/03/19 13:49:34;;;;;;;14.05;8.13;;;5.60;99.90;;;;;;5042042;28;20083;-82
2021/03/19 13:52:00;;;;;;;12.02;6.68;;;5.70;99.90;;;;;;5040919;28;20098;-83
2021/03/19 13:54:26;;;;;;;13.15;7.38;;;5.10;99.90;;;;;;5032213;28;20141;-85
2021/03/19 13:57:07;;;;;;;10.15;6.97;;;5.40;99.90;;;;;;5037280;28;20465;-82
2021/03/19 13:59:33;;;;;;;10.02;5.85;;;5.60;99.90;;;;;;5044666;28;20207;-81
2021/03/19 14:01:59;;;;;;;10.35;5.38;;;6.00;99.90;;;;;;5038993;28;20092;-82
2021/03/19 14:04:24;;;;;;;9.35;5.63;;;5.60;99.90;;;;;;5050290;28;20017;-84
2021/03/19 14:06:51;;;;;;;8.60;5.65;;;5.90;99.90;;;;;;5046012;28;20039;-82